Fair Seas — V7PD2 — position and weather

sailwx.info

Track history (hours):
 
Tides and Currents Weather Stations Pressure Air Temp Water Temp Dewpoint Dewpoint Depression Visibility Wind Speed Wind Dir Waves Ship Positions

Fair Seas

Last reported at 2014-Dec-13 08:16 UTC. Time now 2014-Dec-20 17:15 UTC.
Position N 37°05' E 002°14'.

Length 250 m; draft 13.4 m.

Type: Tanker. MMSI: 538003211.

Date/timePositionNaut miles runAvg speedWind from/ knotsBaromVisibWave heightAir tempDewpointWater temp
2014-Dec-13 08:16N 37°05' E 002°14'2111.8
2014-Dec-13 06:31N 37°02' E 001°48'4513.1
2014-Dec-13 03:06N 36°54' E 000°53'7312.2
2014-Dec-12 21:08N 36°38' W 000°35'2012.7
2014-Dec-12 19:33N 36°33' W 000°60'20211.7
2014-Dec-12 02:18N 36°02' W 005°07'811.3
2014-Dec-12 01:33N 35°60' W 005°17'1211.7
2014-Dec-12 00:33N 35°56' W 005°31'1411.7
2014-Dec-11 23:19N 35°53' W 005°49'9111.7
2014-Dec-11 15:33N 36°07' W 007°40'2211.2
2014-Dec-11 13:33N 36°13' W 008°07'1311.2
2014-Dec-11 12:21N 36°17' W 008°23'911.3
2014-Dec-11 11:32N 36°19' W 008°34'4511.1
2014-Dec-11 07:28N 36°35' W 009°26'3311.2
2014-Dec-11 04:33N 37°05' W 009°44'1111.5
2014-Dec-11 03:33N 37°16' W 009°47'1111.3
2014-Dec-11 02:32N 37°27' W 009°50'1211.4
2014-Dec-11 01:31N 37°38' W 009°54'1211.4
2014-Dec-11 00:30N 37°49' W 009°57'1211.5
2014-Dec-10 23:26N 38°01' W 010°00'2411.8
2014-Dec-10 21:25N 38°25' W 010°07'1411.6
2014-Dec-10 20:13N 38°38' W 010°11'1111.2
2014-Dec-10 19:16N 38°49' W 010°12'  
2014-Dec-07 10:06N 50°25' W 000°24'21 8.1
2014-Dec-07 07:33N 50°31' E 000°08'9 9.1
2014-Dec-07 06:33N 50°34' E 000°21'1110.5
2014-Dec-07 05:33N 50°37' E 000°37'1111.3
2014-Dec-07 04:33N 50°43' E 000°52'1211.2
2014-Dec-07 03:31N 50°49' E 001°07'1010.4
2014-Dec-07 02:33N 50°56' E 001°20'9 8.9
2014-Dec-07 01:33N 51°03' E 001°29'8 7.5
2014-Dec-07 00:33N 51°08' E 001°37'8 8.1
2014-Dec-06 23:33N 51°14' E 001°46'1010.2
2014-Dec-06 22:33N 51°23' E 001°53'1212.1
2014-Dec-06 21:33N 51°33' E 002°05'1313.1
2014-Dec-06 20:33N 51°42' E 002°19'45210.8
2014-Dec-05 02:32N 57°47' E 010°01'1211.7
2014-Dec-05 01:32N 57°48' E 010°23'1111.6
2014-Dec-05 00:33N 57°48' E 010°44'1010.4
2014-Dec-04 23:33N 57°41' E 010°59'1414.1
2014-Dec-04 22:33N 57°32' E 011°18'1312.7
2014-Dec-04 21:34N 57°21' E 011°30'1313.3
2014-Dec-04 20:33N 57°08' E 011°39'1413.5
2014-Dec-04 19:32N 56°55' E 011°47'1212.5
2014-Dec-04 18:33N 56°43' E 011°52'1713.1
2014-Dec-04 17:15N 56°29' E 011°36'2112.5
2014-Dec-04 15:31N 56°10' E 011°16'1212.1
2014-Dec-04 14:32N 56°00' E 011°04'1211.7
2014-Dec-04 13:33N 55°53' E 010°49'4911.1
2014-Dec-04 09:10N 55°04' E 010°60'710.7
2014-Dec-04 08:28N 54°57' E 010°56'38 9.2
2014-Dec-04 04:21N 54°28' E 011°38'1011.6
2014-Dec-04 03:30N 54°26' E 011°54'1010.3
2014-Dec-04 02:33N 54°27' E 012°11'10 9.9
2014-Dec-04 01:32N 54°36' E 012°17'39 9.7
2014-Dec-03 21:30N 54°55' E 013°17'1111.3
2014-Dec-03 20:33N 54°58' E 013°35'1111.6
2014-Dec-03 19:33N 55°02' E 013°54'1111.0
2014-Dec-03 18:33N 55°08' E 014°10'1111.3
2014-Dec-03 17:33N 55°17' E 014°22'1211.8
2014-Dec-03 16:33N 55°26' E 014°34'1211.8
2014-Dec-03 15:33N 55°32' E 014°52'1211.7
2014-Dec-03 14:33N 55°37' E 015°11'1211.7
2014-Dec-03 13:33N 55°39' E 015°31'2411.8
2014-Dec-03 11:33N 55°46' E 016°12'  
Track history (hours):
 
Tides and Currents Weather Stations Pressure Air Temp Water Temp Dewpoint Dewpoint Depression Visibility Wind Speed Wind Dir Waves Ship Positions

Fair Seas

Last reported at 2014-Dec-13 08:16 UTC. Time now 2014-Dec-20 17:15 UTC.
Position N 37°05' E 002°14'.

Length 250 m; draft 13.4 m.

Type: Tanker. MMSI: 538003211.

Date/timePositionNaut miles runAvg speedWind from/ knotsBaromVisibWave heightAir tempDewpointWater temp
2014-Dec-13 08:16N 37°05' E 002°14'2111.8
2014-Dec-13 06:31N 37°02' E 001°48'4513.1
2014-Dec-13 03:06N 36°54' E 000°53'7312.2
2014-Dec-12 21:08N 36°38' W 000°35'2012.7
2014-Dec-12 19:33N 36°33' W 000°60'20211.7
2014-Dec-12 02:18N 36°02' W 005°07'811.3
2014-Dec-12 01:33N 35°60' W 005°17'1211.7
2014-Dec-12 00:33N 35°56' W 005°31'1411.7
2014-Dec-11 23:19N 35°53' W 005°49'9111.7
2014-Dec-11 15:33N 36°07' W 007°40'2211.2
2014-Dec-11 13:33N 36°13' W 008°07'1311.2
2014-Dec-11 12:21N 36°17' W 008°23'911.3
2014-Dec-11 11:32N 36°19' W 008°34'4511.1
2014-Dec-11 07:28N 36°35' W 009°26'3311.2
2014-Dec-11 04:33N 37°05' W 009°44'1111.5
2014-Dec-11 03:33N 37°16' W 009°47'1111.3
2014-Dec-11 02:32N 37°27' W 009°50'1211.4
2014-Dec-11 01:31N 37°38' W 009°54'1211.4
2014-Dec-11 00:30N 37°49' W 009°57'1211.5
2014-Dec-10 23:26N 38°01' W 010°00'2411.8
2014-Dec-10 21:25N 38°25' W 010°07'1411.6
2014-Dec-10 20:13N 38°38' W 010°11'1111.2
2014-Dec-10 19:16N 38°49' W 010°12'  
2014-Dec-07 10:06N 50°25' W 000°24'21 8.1
2014-Dec-07 07:33N 50°31' E 000°08'9 9.1
2014-Dec-07 06:33N 50°34' E 000°21'1110.5
2014-Dec-07 05:33N 50°37' E 000°37'1111.3
2014-Dec-07 04:33N 50°43' E 000°52'1211.2
2014-Dec-07 03:31N 50°49' E 001°07'1010.4
2014-Dec-07 02:33N 50°56' E 001°20'9 8.9
2014-Dec-07 01:33N 51°03' E 001°29'8 7.5
2014-Dec-07 00:33N 51°08' E 001°37'8 8.1
2014-Dec-06 23:33N 51°14' E 001°46'1010.2
2014-Dec-06 22:33N 51°23' E 001°53'1212.1
2014-Dec-06 21:33N 51°33' E 002°05'1313.1
2014-Dec-06 20:33N 51°42' E 002°19'45210.8
2014-Dec-05 02:32N 57°47' E 010°01'1211.7
2014-Dec-05 01:32N 57°48' E 010°23'1111.6
2014-Dec-05 00:33N 57°48' E 010°44'1010.4
2014-Dec-04 23:33N 57°41' E 010°59'1414.1
2014-Dec-04 22:33N 57°32' E 011°18'1312.7
2014-Dec-04 21:34N 57°21' E 011°30'1313.3
2014-Dec-04 20:33N 57°08' E 011°39'1413.5
2014-Dec-04 19:32N 56°55' E 011°47'1212.5
2014-Dec-04 18:33N 56°43' E 011°52'1713.1
2014-Dec-04 17:15N 56°29' E 011°36'2112.5
2014-Dec-04 15:31N 56°10' E 011°16'1212.1
2014-Dec-04 14:32N 56°00' E 011°04'1211.7
2014-Dec-04 13:33N 55°53' E 010°49'4911.1
2014-Dec-04 09:10N 55°04' E 010°60'710.7
2014-Dec-04 08:28N 54°57' E 010°56'38 9.2
2014-Dec-04 04:21N 54°28' E 011°38'1011.6
2014-Dec-04 03:30N 54°26' E 011°54'1010.3
2014-Dec-04 02:33N 54°27' E 012°11'10 9.9
2014-Dec-04 01:32N 54°36' E 012°17'39 9.7
2014-Dec-03 21:30N 54°55' E 013°17'1111.3
2014-Dec-03 20:33N 54°58' E 013°35'1111.6
2014-Dec-03 19:33N 55°02' E 013°54'1111.0
2014-Dec-03 18:33N 55°08' E 014°10'1111.3
2014-Dec-03 17:33N 55°17' E 014°22'1211.8
2014-Dec-03 16:33N 55°26' E 014°34'1211.8
2014-Dec-03 15:33N 55°32' E 014°52'1211.7
2014-Dec-03 14:33N 55°37' E 015°11'1211.7
2014-Dec-03 13:33N 55°39' E 015°31'2411.8
2014-Dec-03 11:33N 55°46' E 016°12'  

Dump ship's entire track history